Time,TemperatureF,DewpointF,PressureIn,WindDirection,WindDirectionDegrees,WindSpeedMPH,WindSpeedGustMPH,Humidity,HourlyPrecipIn,Conditions,Clouds,dailyrainin,SoftwareType,DateUTC
2013-05-23 00:13:00,47.7,36.0,30.14,NW,311,0.0,-999.0,64,-99.99,,,0.00,weatherlink.com 1.10,2013-05-22 23:13:00,
2013-05-23 00:28:00,47.1,37.0,30.15,NW,314,0.0,-999.0,67,-99.99,,,0.00,weatherlink.com 1.10,2013-05-22 23:28:00,
2013-05-23 00:43:00,46.7,37.0,30.14,WNW,294,0.0,-999.0,69,-99.99,,,0.00,weatherlink.com 1.10,2013-05-22 23:43:00,
2013-05-23 00:58:00,46.5,37.0,30.14,NNW,331,0.0,-999.0,70,-99.99,,,0.00,weatherlink.com 1.10,2013-05-22 23:58:00,
2013-05-23 01:13:00,46.6,38.0,30.14,NW,321,0.0,-999.0,71,-99.99,,,0.00,weatherlink.com 1.10,2013-05-23 00:13:00,
2013-05-23 01:28:00,46.1,37.0,30.14,NW,304,0.0,-999.0,71,-99.99,,,0.00,weatherlink.com 1.10,2013-05-23 00:28:00,
2013-05-23 01:43:00,45.8,38.0,30.13,NW,316,0.0,-999.0,74,-99.99,,,0.00,weatherlink.com 1.10,2013-05-23 00:43:00,
2013-05-23 01:58:00,45.3,38.0,30.13,NW,306,0.0,-999.0,76,-99.99,,,0.00,weatherlink.com 1.10,2013-05-23 00:58:00,
2013-05-23 02:13:00,45.1,38.0,30.13,WNW,294,0.0,-999.0,76,-99.99,,,0.00,weatherlink.com 1.10,2013-05-23 01:13:00,
2013-05-23 02:28:00,45.0,38.0,30.13,NW,313,0.0,-999.0,77,-99.99,,,0.00,weatherlink.com 1.10,2013-05-23 01:28:00,
2013-05-23 02:43:00,44.7,38.0,30.13,NW,309,0.0,-999.0,77,-99.99,,,0.00,weatherlink.com 1.10,2013-05-23 01:43:00,
2013-05-23 02:58:00,44.3,38.0,30.13,WNW,288,0.0,-999.0,78,-99.99,,,0.00,weatherlink.com 1.10,2013-05-23 01:58:00,
2013-05-23 03:13:00,44.0,38.0,30.13,WNW,283,0.0,-999.0,78,-99.99,,,0.00,weatherlink.com 1.10,2013-05-23 02:13:00,
2013-05-23 03:28:00,43.8,38.0,30.12,WNW,284,0.0,-999.0,79,-99.99,,,0.00,weatherlink.com 1.10,2013-05-23 02:28:00,
2013-05-23 03:43:00,43.6,38.0,30.12,WNW,300,0.0,-999.0,79,-99.99,,,0.00,weatherlink.com 1.10,2013-05-23 02:43:00,
2013-05-23 03:58:00,43.6,38.0,30.11,WNW,288,0.0,-999.0,80,-99.99,,,0.00,weatherlink.com 1.10,2013-05-23 02:58:00,
2013-05-23 04:13:00,43.5,38.0,30.11,WNW,294,0.0,-999.0,80,-99.99,,,0.00,weatherlink.com 1.10,2013-05-23 03:13:00,
2013-05-23 04:28:00,43.4,38.0,30.11,West,267,0.0,-999.0,81,-99.99,,,0.00,weatherlink.com 1.10,2013-05-23 03:28:00,
2013-05-23 04:43:00,43.3,38.0,30.11,West,272,0.0,-999.0,80,-99.99,,,0.00,weatherlink.com 1.10,2013-05-23 03:43:00,
2013-05-23 04:58:00,43.1,38.0,30.11,West,267,0.0,-999.0,81,-99.99,,,0.00,weatherlink.com 1.10,2013-05-23 03:58:00,
2013-05-23 06:29:00,42.2,37.0,30.12,WNW,297,0.0,-999.0,83,-99.99,,,0.00,weatherlink.com 1.10,2013-05-23 05:29:00,
2013-05-23 06:44:00,42.4,37.0,30.12,West,261,0.0,-999.0,82,-99.99,,,0.00,weatherlink.com 1.10,2013-05-23 05:44:00,
2013-05-23 06:59:00,42.9,37.0,30.11,West,275,0.0,-999.0,81,-99.99,,,0.00,weatherlink.com 1.10,2013-05-23 05:59:00,
2013-05-23 07:14:00,43.7,37.0,30.11,WNW,302,0.0,-999.0,78,-99.99,,,0.00,weatherlink.com 1.10,2013-05-23 06:14:00,
2013-05-23 07:29:00,44.5,38.0,30.11,West,261,0.0,-999.0,77,-99.99,,,0.00,weatherlink.com 1.10,2013-05-23 06:29:00,
2013-05-23 07:44:00,45.0,38.0,30.11,West,277,0.0,-999.0,76,-99.99,,,0.00,weatherlink.com 1.10,2013-05-23 06:44:00,
2013-05-23 07:59:00,45.5,38.0,30.10,NW,308,0.0,-999.0,75,-99.99,,,0.00,weatherlink.com 1.10,2013-05-23 06:59:00,
2013-05-23 08:14:00,46.0,38.0,30.11,WNW,298,0.0,-999.0,74,-99.99,,,0.00,weatherlink.com 1.10,2013-05-23 07:14:00,
2013-05-23 08:29:00,46.9,38.0,30.10,WNW,295,0.0,-999.0,72,-99.99,,,0.00,weatherlink.com 1.10,2013-05-23 07:29:00,
2013-05-23 08:44:00,47.5,38.0,30.10,NNW,340,0.0,-999.0,69,-99.99,,,0.00,weatherlink.com 1.10,2013-05-23 07:44:00,
2013-05-23 08:59:00,47.1,37.0,30.10,WNW,302,0.0,-999.0,69,-99.99,,,0.00,weatherlink.com 1.10,2013-05-23 07:59:00,
2013-05-23 09:14:00,47.2,37.0,30.10,NNW,331,0.0,-999.0,69,-99.99,,,0.00,weatherlink.com 1.10,2013-05-23 08:14:00,
2013-05-23 09:29:00,47.4,38.0,30.10,WNW,294,0.0,-999.0,69,-99.99,,,0.00,weatherlink.com 1.10,2013-05-23 08:29:00,
2013-05-23 09:44:00,48.1,38.0,30.09,NW,319,0.0,-999.0,68,-99.99,,,0.00,weatherlink.com 1.10,2013-05-23 08:44:00,
2013-05-23 09:59:00,48.5,37.0,30.09,NE,34,0.0,-999.0,64,-99.99,,,0.00,weatherlink.com 1.10,2013-05-23 08:59:00,
2013-05-23 10:14:00,49.8,37.0,30.09,WNW,303,0.0,-999.0,61,-99.99,,,0.00,weatherlink.com 1.10,2013-05-23 09:14:00,
2013-05-23 10:29:00,50.0,37.0,30.09,West,271,0.0,-999.0,62,-99.99,,,0.00,weatherlink.com 1.10,2013-05-23 09:29:00,
2013-05-23 10:44:00,50.1,38.0,30.09,WNW,300,0.0,-999.0,63,-99.99,,,0.00,weatherlink.com 1.10,2013-05-23 09:44:00,
2013-05-23 10:59:00,49.7,37.0,30.09,WNW,283,0.0,-999.0,63,-99.99,,,0.00,weatherlink.com 1.10,2013-05-23 09:59:00,
2013-05-23 11:14:00,49.7,38.0,30.10,NW,311,0.0,-999.0,64,-99.99,,,0.00,weatherlink.com 1.10,2013-05-23 10:14:00,
2013-05-23 11:29:00,49.6,35.0,30.09,WNW,288,0.0,-999.0,57,-99.99,,,0.00,weatherlink.com 1.10,2013-05-23 10:29:00,
2013-05-23 11:44:00,50.7,35.0,30.09,NNE,12,0.0,-999.0,55,-99.99,,,0.00,weatherlink.com 1.10,2013-05-23 10:44:00,
2013-05-23 11:59:00,50.6,37.0,30.09,NNE,17,0.0,-999.0,59,-99.99,,,0.00,weatherlink.com 1.10,2013-05-23 10:59:00,
2013-05-23 12:14:00,50.2,38.0,30.08,WNW,294,0.0,-999.0,63,-99.99,,,0.00,weatherlink.com 1.10,2013-05-23 11:14:00,
2013-05-23 12:29:00,49.8,40.0,30.09,North,9,0.0,-999.0,69,-99.99,,,0.00,weatherlink.com 1.10,2013-05-23 11:29:00,
2013-05-23 12:44:00,49.1,39.0,30.07,NNW,329,0.0,-999.0,68,-99.99,,,0.00,weatherlink.com 1.10,2013-05-23 11:44:00,
2013-05-23 12:59:00,51.4,37.0,30.07,NNW,329,0.0,-999.0,59,-99.99,,,0.00,weatherlink.com 1.10,2013-05-23 11:59:00,
2013-05-23 13:14:00,49.4,38.0,30.09,ENE,60,0.0,-999.0,66,-99.99,,,0.00,weatherlink.com 1.10,2013-05-23 12:14:00,
2013-05-23 13:29:00,47.7,38.0,30.07,North,9,0.0,-999.0,70,-99.99,,,0.00,weatherlink.com 1.10,2013-05-23 12:29:00,
2013-05-23 13:44:00,50.5,37.0,30.07,WNW,284,0.0,-999.0,60,-99.99,,,0.00,weatherlink.com 1.10,2013-05-23 12:44:00,
2013-05-23 13:59:00,46.6,38.0,30.09,NE,46,0.0,-999.0,72,-99.99,,,0.00,weatherlink.com 1.10,2013-05-23 12:59:00,
2013-05-23 14:14:00,47.6,38.0,30.08,NNW,329,0.0,-999.0,70,-99.99,,,0.01,weatherlink.com 1.10,2013-05-23 13:14:00,
2013-05-23 14:29:00,50.0,35.0,30.07,NNE,24,0.0,-999.0,56,-99.99,,,0.01,weatherlink.com 1.10,2013-05-23 13:29:00,
2013-05-23 14:44:00,51.8,34.0,30.06,NNE,25,0.0,-999.0,51,-99.99,,,0.01,weatherlink.com 1.10,2013-05-23 13:44:00,
2013-05-23 14:59:00,52.1,34.0,30.06,NNE,16,0.0,-999.0,51,-99.99,,,0.01,weatherlink.com 1.10,2013-05-23 13:59:00,
2013-05-23 15:14:00,51.5,35.0,30.07,NW,325,0.0,-999.0,53,-99.99,,,0.01,weatherlink.com 1.10,2013-05-23 14:14:00,
2013-05-23 15:29:00,51.5,36.0,30.07,NNE,16,0.0,-999.0,55,-99.99,,,0.01,weatherlink.com 1.10,2013-05-23 14:29:00,
2013-05-23 15:44:00,51.2,35.0,30.06,NW,315,0.0,-999.0,54,-99.99,,,0.01,weatherlink.com 1.10,2013-05-23 14:44:00,
2013-05-23 15:59:00,51.7,33.0,30.06,NW,305,0.0,-999.0,50,-99.99,,,0.01,weatherlink.com 1.10,2013-05-23 14:59:00,
2013-05-23 16:14:00,51.7,34.0,30.05,NNW,340,0.0,-999.0,51,-99.99,,,0.01,weatherlink.com 1.10,2013-05-23 15:14:00,
2013-05-23 16:29:00,51.9,33.0,30.05,North,355,0.0,-999.0,49,-99.99,,,0.01,weatherlink.com 1.10,2013-05-23 15:29:00,
2013-05-23 16:45:00,51.8,33.0,30.05,NNE,18,0.0,-999.0,49,-99.99,,,0.01,weatherlink.com 1.10,2013-05-23 15:45:00,
2013-05-23 16:59:00,51.4,33.0,30.05,NW,310,0.0,-999.0,49,-99.99,,,0.01,weatherlink.com 1.10,2013-05-23 15:59:00,
2013-05-23 17:15:00,51.4,34.0,30.04,NNE,13,0.0,-999.0,52,-99.99,,,0.01,weatherlink.com 1.10,2013-05-23 16:15:00,
2013-05-23 17:30:00,50.6,37.0,30.05,WNW,292,0.0,-999.0,60,-99.99,,,0.01,weatherlink.com 1.10,2013-05-23 16:30:00,
2013-05-23 17:45:00,49.7,38.0,30.05,NNW,345,0.0,-999.0,65,-99.99,,,0.01,weatherlink.com 1.10,2013-05-23 16:45:00,
2013-05-23 18:00:00,49.3,38.0,30.04,NNW,348,0.0,-999.0,65,-99.99,,,0.01,weatherlink.com 1.10,2013-05-23 17:00:00,
2013-05-23 18:15:00,49.9,37.0,30.04,NW,308,0.0,-999.0,62,-99.99,,,0.01,weatherlink.com 1.10,2013-05-23 17:15:00,
2013-05-23 18:30:00,50.2,35.0,30.04,NNE,22,0.0,-999.0,57,-99.99,,,0.01,weatherlink.com 1.10,2013-05-23 17:30:00,
2013-05-23 18:45:00,50.1,35.0,30.04,NW,321,0.0,-999.0,56,-99.99,,,0.01,weatherlink.com 1.10,2013-05-23 17:45:00,
2013-05-23 19:00:00,50.1,36.0,30.03,NW,324,0.0,-999.0,58,-99.99,,,0.01,weatherlink.com 1.10,2013-05-23 18:00:00,
2013-05-23 19:15:00,49.8,35.0,30.03,NW,319,0.0,-999.0,58,-99.99,,,0.01,weatherlink.com 1.10,2013-05-23 18:15:00,
2013-05-23 19:30:00,49.6,35.0,30.04,NNW,336,0.0,-999.0,58,-99.99,,,0.01,weatherlink.com 1.10,2013-05-23 18:30:00,
2013-05-23 19:45:00,49.2,35.0,30.04,North,360,0.0,-999.0,58,-99.99,,,0.01,weatherlink.com 1.10,2013-05-23 18:45:00,
2013-05-23 20:00:00,49.0,35.0,30.03,NE,46,0.0,-999.0,60,-99.99,,,0.01,weatherlink.com 1.10,2013-05-23 19:00:00,
2013-05-23 20:30:00,49.0,35.0,30.03,North,350,0.0,-999.0,60,-99.99,,,0.01,weatherlink.com 1.10,2013-05-23 19:30:00,
2013-05-23 20:45:00,48.8,36.0,30.04,North,11,0.0,-999.0,61,-99.99,,,0.01,weatherlink.com 1.10,2013-05-23 19:45:00,
2013-05-23 21:00:00,48.4,36.0,30.04,NW,323,0.0,-999.0,62,-99.99,,,0.01,weatherlink.com 1.10,2013-05-23 20:00:00,
2013-05-23 21:15:00,48.0,35.0,30.04,NNW,344,0.0,-999.0,62,-99.99,,,0.01,weatherlink.com 1.10,2013-05-23 20:15:00,
2013-05-23 21:30:00,47.6,35.0,30.04,NW,315,0.0,-999.0,63,-99.99,,,0.01,weatherlink.com 1.10,2013-05-23 20:30:00,
2013-05-23 21:45:00,47.3,36.0,30.04,North,360,0.0,-999.0,65,-99.99,,,0.01,weatherlink.com 1.10,2013-05-23 20:45:00,
2013-05-23 22:00:00,47.1,36.0,30.03,WNW,296,0.0,-999.0,66,-99.99,,,0.01,weatherlink.com 1.10,2013-05-23 21:00:00,
2013-05-23 22:15:00,47.0,36.0,30.03,NNW,337,0.0,-999.0,66,-99.99,,,0.01,weatherlink.com 1.10,2013-05-23 21:15:00,
2013-05-23 22:30:00,47.2,35.0,30.04,NW,306,0.0,-999.0,64,-99.99,,,0.01,weatherlink.com 1.10,2013-05-23 21:30:00,
2013-05-23 22:45:00,47.0,35.0,30.04,NNW,343,0.0,-999.0,63,-99.99,,,0.01,weatherlink.com 1.10,2013-05-23 21:45:00,
2013-05-23 23:00:00,46.6,35.0,30.03,NNE,33,0.0,-999.0,64,-99.99,,,0.01,weatherlink.com 1.10,2013-05-23 22:00:00,
2013-05-23 23:15:00,46.3,35.0,30.03,NW,306,0.0,-999.0,65,-99.99,,,0.01,weatherlink.com 1.10,2013-05-23 22:15:00,
2013-05-23 23:30:00,45.9,35.0,30.03,WNW,297,0.0,-999.0,67,-99.99,,,0.01,weatherlink.com 1.10,2013-05-23 22:30:00,
2013-05-23 23:45:00,45.7,35.0,30.03,West,281,0.0,-999.0,67,-99.99,,,0.01,weatherlink.com 1.10,2013-05-23 22:45:00,